Time;durP1;ratioP1;P1;durP2;ratioP2;P2;SDS_P1;SDS_P2;PMS_P1;PMS_P2;Temp;Humidity;BMP_temperature;BMP_pressure;BME280_temperature;BME280_humidity;BME280_pressure;Samples;Min_cycle;Max_cycle;Signal;HPM_P1;HPM_P2
2023/06/04 00:01:11;;;;;;;0.00;0.00;;;16.20;65.20;;;;;;5070833;28;20177;-62
2023/06/04 00:03:36;;;;;;;0.00;0.00;;;16.20;65.40;;;;;;5071048;28;20196;-62
2023/06/04 00:06:02;;;;;;;0.00;0.00;;;16.10;65.40;;;;;;5070773;28;20181;-62
2023/06/04 00:08:28;;;;;;;0.00;0.00;;;16.10;65.20;;;;;;5070840;28;20544;-62
2023/06/04 00:10:54;;;;;;;0.00;0.00;;;16.00;65.10;;;;;;5071078;28;20177;-62
2023/06/04 00:13:19;;;;;;;0.00;0.00;;;16.00;64.90;;;;;;5070690;28;20176;-61
2023/06/04 00:15:45;;;;;;;0.00;0.00;;;16.00;64.80;;;;;;5070534;28;20205;-61
2023/06/04 00:18:13;;;;;;;0.00;0.00;;;15.90;64.70;;;;;;5070900;28;20172;-62
2023/06/04 00:20:38;;;;;;;0.00;0.00;;;15.90;64.70;;;;;;5070650;28;20614;-61
2023/06/04 00:23:05;;;;;;;0.00;0.00;;;15.90;64.80;;;;;;5070432;28;20184;-62
2023/06/04 00:25:30;;;;;;;0.00;0.00;;;15.90;64.70;;;;;;5070665;28;20266;-62
2023/06/04 00:27:56;;;;;;;0.00;0.00;;;15.80;64.70;;;;;;5070563;28;20204;-62
2023/06/04 00:30:21;;;;;;;0.00;0.00;;;15.80;64.70;;;;;;5063684;28;20231;-62
2023/06/04 00:32:47;;;;;;;0.00;0.00;;;15.70;64.80;;;;;;5067578;28;20544;-62
2023/06/04 00:35:13;;;;;;;0.00;0.00;;;15.70;64.70;;;;;;5070363;28;20213;-62
2023/06/04 00:37:38;;;;;;;0.00;0.00;;;15.70;64.70;;;;;;5070604;28;20168;-62
2023/06/04 00:40:05;;;;;;;0.00;0.00;;;15.60;64.50;;;;;;5070697;28;20188;-62
2023/06/04 00:42:31;;;;;;;0.00;0.00;;;15.60;64.30;;;;;;5070540;28;20670;-62
2023/06/04 00:44:57;;;;;;;0.10;0.10;;;15.60;64.00;;;;;;5069857;28;20263;-62
2023/06/04 00:47:23;;;;;;;0.00;0.00;;;15.50;64.00;;;;;;5070559;28;20258;-62
2023/06/04 00:49:48;;;;;;;0.00;0.00;;;15.50;64.10;;;;;;5070048;28;21094;-62
2023/06/04 00:52:15;;;;;;;0.00;0.00;;;15.40;63.90;;;;;;5070679;28;20184;-62
2023/06/04 00:54:41;;;;;;;0.00;0.00;;;15.40;63.80;;;;;;5069485;28;20204;-62
2023/06/04 00:57:08;;;;;;;0.00;0.00;;;15.40;63.70;;;;;;5070163;28;20199;-61
2023/06/04 00:59:36;;;;;;;0.00;0.00;;;15.40;63.70;;;;;;5070142;28;20169;-62
2023/06/04 01:02:09;;;;;;;0.00;0.00;;;15.40;63.60;;;;;;5069462;28;20176;-62
2023/06/04 01:04:47;;;;;;;0.00;0.00;;;15.30;63.80;;;;;;5070691;28;20218;-61
2023/06/04 01:07:14;;;;;;;0.00;0.00;;;15.30;63.70;;;;;;5070185;28;20180;-61
2023/06/04 01:09:40;;;;;;;0.00;0.00;;;15.20;63.60;;;;;;5070309;28;20165;-61
2023/06/04 01:12:07;;;;;;;0.00;0.00;;;15.20;63.50;;;;;;5070110;28;20275;-61
2023/06/04 01:14:35;;;;;;;0.00;0.00;;;15.20;63.50;;;;;;5070095;28;20220;-62
2023/06/04 01:17:23;;;;;;;0.00;0.00;;;15.20;63.30;;;;;;5070096;28;20181;-62
2023/06/04 01:20:23;;;;;;;0.00;0.00;;;15.10;63.40;;;;;;5070465;28;20180;-61
2023/06/04 01:23:03;;;;;;;0.00;0.00;;;15.10;63.70;;;;;;5070029;28;20666;-61
2023/06/04 01:25:38;;;;;;;0.00;0.00;;;15.00;63.70;;;;;;5069866;28;20219;-62
2023/06/04 01:28:05;;;;;;;0.00;0.00;;;14.90;63.70;;;;;;5069823;28;20180;-62
2023/06/04 01:30:34;;;;;;;0.00;0.00;;;14.90;63.90;;;;;;5069823;28;20676;-62
2023/06/04 01:33:00;;;;;;;0.00;0.00;;;14.90;64.00;;;;;;5070076;28;20169;-62
2023/06/04 01:35:27;;;;;;;0.00;0.00;;;14.90;64.00;;;;;;5069721;28;20208;-62
2023/06/04 01:37:54;;;;;;;0.00;0.00;;;14.90;64.00;;;;;;5069933;28;20181;-62
2023/06/04 01:40:20;;;;;;;0.00;0.00;;;14.80;63.90;;;;;;5070079;28;20651;-62
2023/06/04 01:42:45;;;;;;;0.00;0.00;;;14.80;64.10;;;;;;5069928;28;20193;-61
2023/06/04 01:45:11;;;;;;;0.00;0.00;;;14.80;64.20;;;;;;5069306;28;20188;-61
2023/06/04 01:47:37;;;;;;;0.00;0.00;;;14.70;64.10;;;;;;5069884;28;20643;-60
2023/06/04 01:50:09;;;;;;;0.00;0.00;;;14.70;64.20;;;;;;5069801;28;20181;-61
2023/06/04 01:52:37;;;;;;;0.00;0.00;;;14.70;64.20;;;;;;5070061;28;20168;-61
2023/06/04 01:55:08;;;;;;;0.00;0.00;;;14.70;64.10;;;;;;5069949;28;20278;-61
2023/06/04 01:57:35;;;;;;;0.00;0.00;;;14.70;64.00;;;;;;5069491;28;20173;-61
2023/06/04 02:00:01;;;;;;;0.00;0.00;;;14.60;64.10;;;;;;5069497;28;20284;-61
2023/06/04 02:02:27;;;;;;;0.00;0.00;;;14.60;64.40;;;;;;5069269;28;20280;-61
2023/06/04 02:04:53;;;;;;;0.00;0.00;;;14.60;64.30;;;;;;5069539;28;20184;-62
2023/06/04 02:07:22;;;;;;;0.00;0.00;;;14.50;64.40;;;;;;5072328;28;20181;-61
2023/06/04 02:09:48;;;;;;;0.00;0.00;;;14.50;64.50;;;;;;5073359;28;20624;-61
2023/06/04 02:12:14;;;;;;;0.00;0.00;;;14.50;64.80;;;;;;5073342;28;20275;-61
2023/06/04 02:14:41;;;;;;;0.00;0.00;;;14.50;64.80;;;;;;5072779;28;20248;-61
2023/06/04 02:17:12;;;;;;;0.00;0.00;;;14.40;64.90;;;;;;5072501;28;20600;-61
2023/06/04 02:19:44;;;;;;;0.00;0.00;;;14.40;65.00;;;;;;5072787;28;20216;-61
2023/06/04 02:22:11;;;;;;;0.00;0.00;;;14.40;65.10;;;;;;5073070;28;20237;-61
2023/06/04 02:24:38;;;;;;;0.00;0.00;;;14.40;65.20;;;;;;5072826;28;20271;-61
2023/06/04 02:27:05;;;;;;;0.00;0.00;;;14.40;65.10;;;;;;5072293;28;20644;-61
2023/06/04 02:29:31;;;;;;;0.00;0.00;;;14.40;65.00;;;;;;5070720;28;20188;-61
2023/06/04 02:31:56;;;;;;;0.10;0.10;;;14.30;64.90;;;;;;5072684;28;20176;-62
2023/06/04 02:34:23;;;;;;;0.00;0.00;;;14.30;65.00;;;;;;5072706;28;20266;-61
2023/06/04 02:36:50;;;;;;;0.00;0.00;;;14.30;64.90;;;;;;5070571;28;20181;-61
2023/06/04 02:39:19;;;;;;;0.00;0.00;;;14.30;65.00;;;;;;5071930;28;20188;-60
2023/06/04 02:41:44;;;;;;;0.00;0.00;;;14.30;65.30;;;;;;5072993;28;20215;-61
2023/06/04 02:44:10;;;;;;;0.00;0.00;;;14.30;65.30;;;;;;5072555;28;20200;-61
2023/06/04 02:46:36;;;;;;;0.00;0.00;;;14.30;65.30;;;;;;5073301;28;20173;-61
2023/06/04 02:49:02;;;;;;;0.00;0.00;;;14.30;65.20;;;;;;5073572;28;20172;-61
2023/06/04 02:51:28;;;;;;;0.00;0.00;;;14.30;65.30;;;;;;5073032;28;20639;-61
2023/06/04 02:53:54;;;;;;;0.85;0.85;;;14.30;65.20;;;;;;5072825;28;20627;-61
2023/06/04 02:56:20;;;;;;;0.00;0.00;;;14.20;65.20;;;;;;5072858;28;20192;-61
2023/06/04 02:58:55;;;;;;;0.00;0.00;;;14.20;65.20;;;;;;5072421;28;20177;-61
2023/06/04 03:01:21;;;;;;;0.00;0.00;;;14.20;65.20;;;;;;5072515;28;20184;-61
2023/06/04 03:03:47;;;;;;;0.10;0.10;;;14.10;65.30;;;;;;5072711;28;20180;-61
2023/06/04 03:06:14;;;;;;;0.00;0.00;;;14.10;65.50;;;;;;5071612;28;20181;-61
2023/06/04 03:08:40;;;;;;;0.00;0.00;;;14.10;65.70;;;;;;5072580;28;20188;-61
2023/06/04 03:11:06;;;;;;;0.00;0.00;;;14.00;65.60;;;;;;5072512;28;20264;-61
2023/06/04 03:13:32;;;;;;;0.00;0.00;;;14.00;65.60;;;;;;5071996;28;20180;-61
2023/06/04 03:16:00;;;;;;;0.00;0.00;;;14.00;65.80;;;;;;5072149;28;20224;-61
2023/06/04 03:18:26;;;;;;;0.00;0.00;;;14.00;65.70;;;;;;5071516;28;20185;-62
2023/06/04 03:20:53;;;;;;;0.00;0.00;;;14.00;65.90;;;;;;5072357;28;20708;-62
2023/06/04 03:23:19;;;;;;;0.00;0.00;;;13.90;66.00;;;;;;5072237;28;20251;-61
2023/06/04 03:25:44;;;;;;;0.00;0.00;;;13.90;66.10;;;;;;5071963;28;20216;-61
2023/06/04 03:28:10;;;;;;;0.00;0.00;;;13.90;66.20;;;;;;5071799;28;20189;-61
2023/06/04 03:30:35;;;;;;;0.00;0.00;;;13.80;66.40;;;;;;5072251;28;20173;-61
2023/06/04 03:33:01;;;;;;;0.00;0.00;;;13.80;66.50;;;;;;5071006;28;20271;-62
2023/06/04 03:35:27;;;;;;;0.00;0.00;;;13.80;66.80;;;;;;5072054;28;20296;-61
2023/06/04 03:37:52;;;;;;;0.00;0.00;;;13.90;66.50;;;;;;5071832;28;20252;-61
2023/06/04 03:40:18;;;;;;;0.00;0.00;;;13.90;66.10;;;;;;5072056;28;20203;-61
2023/06/04 03:42:43;;;;;;;0.00;0.00;;;13.90;66.20;;;;;;5071568;28;20179;-61
2023/06/04 03:45:09;;;;;;;0.00;0.00;;;13.90;65.90;;;;;;5071106;28;20378;-61
2023/06/04 03:47:35;;;;;;;0.00;0.00;;;13.90;65.80;;;;;;5071115;28;20588;-61
2023/06/04 03:50:01;;;;;;;0.00;0.00;;;13.90;65.80;;;;;;5070928;28;20767;-61
2023/06/04 03:52:26;;;;;;;0.45;0.45;;;14.00;65.90;;;;;;5070969;28;20208;-61
2023/06/04 03:54:52;;;;;;;0.00;0.00;;;14.00;65.80;;;;;;5070966;28;20247;-61
2023/06/04 03:57:17;;;;;;;0.00;0.00;;;14.00;66.40;;;;;;5070963;28;20789;-61
2023/06/04 03:59:43;;;;;;;0.00;0.00;;;14.10;65.80;;;;;;5070448;28;20222;-62
2023/06/04 04:02:09;;;;;;;0.00;0.00;;;14.10;65.50;;;;;;5070761;28;20200;-62
2023/06/04 04:04:34;;;;;;;0.00;0.00;;;14.10;65.70;;;;;;5070938;28;20169;-61
2023/06/04 04:07:00;;;;;;;0.00;0.00;;;14.20;65.50;;;;;;5070439;28;20674;-61
2023/06/04 04:09:26;;;;;;;0.00;0.00;;;14.20;65.60;;;;;;5070756;28;20191;-61
2023/06/04 04:11:51;;;;;;;0.00;0.00;;;14.30;65.70;;;;;;5069828;28;20552;-62
2023/06/04 04:14:17;;;;;;;0.00;0.00;;;14.30;64.60;;;;;;5069806;28;20261;-62
2023/06/04 04:16:42;;;;;;;0.00;0.00;;;14.40;64.70;;;;;;5069820;28;20195;-62
2023/06/04 04:19:08;;;;;;;0.00;0.00;;;14.50;64.40;;;;;;5070749;28;20647;-60
2023/06/04 04:21:37;;;;;;;0.00;0.00;;;14.60;64.10;;;;;;5070771;28;20259;-62
2023/06/04 04:24:03;;;;;;;0.00;0.00;;;14.80;64.40;;;;;;5070125;28;20165;-62
2023/06/04 04:26:29;;;;;;;0.00;0.00;;;15.00;63.50;;;;;;5069305;28;20221;-62
2023/06/04 04:28:57;;;;;;;0.00;0.00;;;15.20;63.30;;;;;;5069930;28;20259;-61
2023/06/04 04:31:24;;;;;;;0.17;0.17;;;15.40;62.40;;;;;;5070225;28;20192;-62
2023/06/04 04:33:51;;;;;;;0.00;0.00;;;15.50;62.40;;;;;;5070201;28;20184;-62
2023/06/04 04:36:18;;;;;;;0.00;0.00;;;15.80;62.30;;;;;;5069208;28;20192;-62
2023/06/04 04:38:44;;;;;;;0.00;0.00;;;16.00;62.00;;;;;;5071074;28;20654;-60
2023/06/04 04:41:11;;;;;;;0.52;0.52;;;16.30;61.20;;;;;;5069472;28;20218;-61
2023/06/04 04:43:39;;;;;;;0.05;0.05;;;16.50;60.60;;;;;;5062043;28;20191;-60
2023/06/04 04:46:05;;;;;;;0.00;0.00;;;16.80;59.70;;;;;;5069911;28;20199;-61
2023/06/04 04:48:31;;;;;;;0.00;0.00;;;17.00;59.40;;;;;;5069891;28;20188;-60
2023/06/04 04:50:57;;;;;;;0.00;0.00;;;17.20;58.70;;;;;;5069835;28;20242;-60
2023/06/04 04:53:23;;;;;;;0.00;0.00;;;17.60;58.70;;;;;;5069601;28;20255;-60
2023/06/04 04:55:48;;;;;;;0.00;0.00;;;17.90;58.20;;;;;;5069802;28;20286;-59
2023/06/04 04:58:14;;;;;;;0.00;0.00;;;18.20;57.60;;;;;;5068227;28;20272;-60
2023/06/04 05:00:40;;;;;;;0.00;0.00;;;18.50;57.40;;;;;;5069293;28;20246;-60
2023/06/04 05:03:06;;;;;;;0.00;0.00;;;18.70;56.60;;;;;;5069513;28;20176;-59
2023/06/04 05:05:32;;;;;;;0.00;0.00;;;18.90;55.60;;;;;;5069638;28;20260;-60
2023/06/04 05:07:58;;;;;;;0.00;0.00;;;19.00;55.00;;;;;;5068985;28;20200;-60
2023/06/04 05:10:24;;;;;;;0.00;0.00;;;18.90;55.10;;;;;;5069275;28;20184;-60
2023/06/04 05:12:54;;;;;;;0.00;0.00;;;19.10;55.60;;;;;;5068907;28;20172;-60
2023/06/04 05:15:20;;;;;;;0.00;0.00;;;19.40;55.40;;;;;;5069364;28;20224;-60
2023/06/04 05:17:46;;;;;;;0.00;0.00;;;19.60;54.70;;;;;;5069803;28;20276;-60
2023/06/04 05:20:12;;;;;;;0.00;0.00;;;19.80;54.90;;;;;;5069301;28;20180;-60
2023/06/04 05:22:39;;;;;;;0.00;0.00;;;20.00;54.30;;;;;;5068805;28;20183;-60
2023/06/04 05:25:06;;;;;;;0.00;0.00;;;20.10;53.90;;;;;;5068999;28;20181;-60
2023/06/04 05:27:32;;;;;;;0.00;0.00;;;20.40;53.40;;;;;;5069722;28;20636;-60
2023/06/04 05:29:58;;;;;;;0.00;0.00;;;20.60;53.00;;;;;;5069369;28;20211;-60
2023/06/04 05:32:23;;;;;;;0.00;0.00;;;20.80;52.60;;;;;;5069692;28;20255;-59
2023/06/04 05:34:49;;;;;;;0.00;0.00;;;21.00;52.60;;;;;;5069556;28;20247;-60
2023/06/04 05:37:16;;;;;;;0.00;0.00;;;21.00;51.90;;;;;;5068195;28;20189;-59
2023/06/04 05:39:42;;;;;;;0.00;0.00;;;20.70;51.90;;;;;;5069707;28;20169;-60
2023/06/04 05:42:08;;;;;;;0.00;0.00;;;20.50;52.30;;;;;;5072181;28;20175;-59
2023/06/04 05:44:33;;;;;;;0.00;0.00;;;20.80;52.70;;;;;;5073750;28;20230;-60
2023/06/04 05:46:59;;;;;;;0.00;0.00;;;21.00;52.20;;;;;;5073675;28;20169;-60
2023/06/04 05:49:25;;;;;;;0.00;0.00;;;21.50;52.10;;;;;;5073628;28;20214;-60
2023/06/04 05:51:50;;;;;;;0.00;0.00;;;22.00;51.40;;;;;;5073363;28;20169;-60
2023/06/04 05:54:16;;;;;;;0.00;0.00;;;22.50;50.10;;;;;;5073402;28;20210;-60
2023/06/04 05:56:41;;;;;;;0.00;0.00;;;22.80;49.80;;;;;;5073587;28;20230;-60
2023/06/04 05:59:07;;;;;;;0.00;0.00;;;23.10;49.50;;;;;;5073587;28;20172;-60
2023/06/04 06:01:32;;;;;;;0.00;0.00;;;23.30;49.10;;;;;;5073311;28;20379;-60
2023/06/04 06:03:58;;;;;;;0.00;0.00;;;23.40;48.60;;;;;;5073236;28;20157;-60
2023/06/04 06:06:23;;;;;;;0.00;0.00;;;23.70;48.80;;;;;;5073359;28;20204;-60
2023/06/04 06:08:49;;;;;;;0.00;0.00;;;23.80;48.70;;;;;;5073337;28;20230;-60
2023/06/04 06:11:15;;;;;;;0.00;0.00;;;24.10;48.50;;;;;;5073309;28;20173;-60
2023/06/04 06:13:40;;;;;;;0.00;0.00;;;24.40;47.60;;;;;;5073227;28;20231;-60
2023/06/04 06:16:06;;;;;;;0.00;0.00;;;24.60;47.50;;;;;;5073015;28;20615;-60
2023/06/04 06:18:32;;;;;;;0.00;0.00;;;24.90;47.20;;;;;;5073100;28;20719;-60
2023/06/04 06:20:58;;;;;;;0.00;0.00;;;24.90;46.50;;;;;;5072832;28;20199;-60
2023/06/04 06:23:24;;;;;;;0.00;0.00;;;24.40;46.10;;;;;;5071791;28;20636;-60
2023/06/04 06:25:51;;;;;;;0.08;0.08;;;23.80;46.80;;;;;;5072844;28;20220;-60
2023/06/04 06:28:17;;;;;;;0.00;0.00;;;23.40;48.20;;;;;;5073083;28;20176;-60
2023/06/04 06:30:44;;;;;;;0.00;0.00;;;23.70;48.70;;;;;;5072941;28;20185;-60
2023/06/04 06:33:10;;;;;;;0.00;0.00;;;24.10;48.50;;;;;;5073125;28;20180;-60
2023/06/04 06:35:35;;;;;;;0.00;0.00;;;24.70;48.20;;;;;;5072823;28;20208;-60
2023/06/04 06:38:01;;;;;;;0.00;0.00;;;25.30;47.10;;;;;;5072761;28;20184;-60
2023/06/04 06:40:26;;;;;;;0.00;0.00;;;25.70;46.20;;;;;;5073008;28;20636;-60
2023/06/04 06:42:52;;;;;;;0.00;0.00;;;26.10;46.40;;;;;;5072679;28;20181;-60
2023/06/04 06:45:18;;;;;;;0.00;0.00;;;26.40;45.90;;;;;;5071387;28;20180;-60
2023/06/04 06:47:45;;;;;;;0.00;0.00;;;26.70;45.90;;;;;;5072666;28;20180;-61
2023/06/04 06:50:10;;;;;;;0.00;0.00;;;27.20;44.50;;;;;;5072813;28;20184;-60
2023/06/04 06:52:36;;;;;;;0.00;0.00;;;27.30;43.80;;;;;;5071444;28;20176;-60
2023/06/04 06:55:03;;;;;;;0.00;0.00;;;27.00;44.20;;;;;;5072313;28;20598;-60
2023/06/04 06:57:29;;;;;;;0.00;0.00;;;27.10;44.40;;;;;;5072674;28;20173;-60
2023/06/04 06:59:55;;;;;;;0.00;0.00;;;27.30;44.30;;;;;;5072232;28;20165;-60
2023/06/04 07:02:20;;;;;;;0.00;0.00;;;27.60;43.80;;;;;;5072643;28;20185;-60
2023/06/04 07:04:46;;;;;;;0.00;0.00;;;28.00;43.00;;;;;;5072310;28;20185;-61
2023/06/04 07:07:11;;;;;;;0.00;0.00;;;28.30;43.30;;;;;;5072391;28;20226;-61
2023/06/04 07:09:37;;;;;;;0.00;0.00;;;28.70;42.10;;;;;;5072220;28;20231;-60
2023/06/04 07:12:03;;;;;;;0.00;0.00;;;28.90;42.00;;;;;;5072121;28;20226;-60
2023/06/04 07:14:28;;;;;;;0.00;0.00;;;28.70;41.50;;;;;;5072084;28;20690;-60
2023/06/04 07:16:54;;;;;;;0.00;0.00;;;28.80;41.90;;;;;;5072117;28;20713;-60
2023/06/04 07:19:19;;;;;;;0.00;0.00;;;29.00;42.20;;;;;;5072087;28;20172;-60
2023/06/04 07:21:45;;;;;;;0.00;0.00;;;29.40;42.00;;;;;;5072162;28;20168;-60
2023/06/04 07:24:10;;;;;;;0.00;0.00;;;29.90;40.40;;;;;;5072189;28;20650;-60
2023/06/04 07:26:36;;;;;;;0.00;0.00;;;29.90;40.40;;;;;;5072049;28;20259;-60
2023/06/04 07:29:02;;;;;;;0.00;0.00;;;30.20;40.90;;;;;;5072198;28;20181;-60
2023/06/04 07:31:27;;;;;;;0.00;0.00;;;30.10;39.80;;;;;;5072130;28;20180;-58
2023/06/04 07:33:53;;;;;;;0.00;0.00;;;29.90;40.00;;;;;;5071779;28;20176;-58
2023/06/04 07:36:18;;;;;;;0.00;0.00;;;29.80;39.90;;;;;;5072101;28;20220;-58
2023/06/04 07:38:44;;;;;;;0.00;0.00;;;29.90;40.40;;;;;;5071930;28;20177;-60
2023/06/04 07:41:10;;;;;;;0.00;0.00;;;29.80;39.80;;;;;;5072052;28;20577;-60
2023/06/04 07:43:36;;;;;;;0.00;0.00;;;29.50;40.00;;;;;;5071785;28;20177;-59
2023/06/04 07:46:05;;;;;;;0.00;0.00;;;29.20;40.40;;;;;;5071786;28;20607;-60
2023/06/04 07:48:30;;;;;;;0.10;0.10;;;29.00;41.20;;;;;;5071818;28;20897;-60
2023/06/04 07:51:00;;;;;;;0.00;0.00;;;29.00;41.60;;;;;;5071385;28;20268;-59
2023/06/04 07:53:26;;;;;;;0.00;0.00;;;29.30;41.40;;;;;;5071717;28;20536;-60
2023/06/04 07:55:52;;;;;;;0.00;0.00;;;29.60;41.70;;;;;;5071413;28;20224;-60
2023/06/04 07:58:17;;;;;;;0.00;0.00;;;29.40;40.40;;;;;;5071457;28;20711;-60
2023/06/04 08:00:43;;;;;;;0.00;0.00;;;29.20;40.80;;;;;;5071538;28;20180;-60
2023/06/04 08:03:08;;;;;;;0.00;0.00;;;29.10;41.60;;;;;;5071358;28;20173;-60
2023/06/04 08:05:34;;;;;;;0.00;0.00;;;29.30;41.80;;;;;;5071007;28;20173;-60
2023/06/04 08:08:00;;;;;;;0.00;0.00;;;29.50;41.20;;;;;;5071434;28;20556;-60
2023/06/04 08:10:26;;;;;;;0.00;0.00;;;29.80;41.30;;;;;;5071539;28;20330;-60
2023/06/04 08:12:51;;;;;;;0.00;0.00;;;30.20;40.90;;;;;;5071435;28;20181;-60
2023/06/04 08:15:17;;;;;;;0.00;0.00;;;30.40;40.70;;;;;;5071243;28;20220;-60
2023/06/04 08:17:42;;;;;;;0.00;0.00;;;30.30;40.60;;;;;;5071258;28;20246;-60
2023/06/04 08:20:11;;;;;;;0.00;0.00;;;30.00;41.50;;;;;;5071409;28;20632;-60
2023/06/04 08:22:37;;;;;;;0.00;0.00;;;30.20;41.40;;;;;;5071101;28;20168;-60
2023/06/04 08:25:04;;;;;;;0.00;0.00;;;30.20;40.60;;;;;;5070844;28;20510;-60
2023/06/04 08:27:30;;;;;;;0.00;0.00;;;30.00;41.20;;;;;;5071010;28;20662;-59
2023/06/04 08:29:57;;;;;;;0.00;0.00;;;29.80;41.40;;;;;;5070750;28;20267;-59
2023/06/04 08:32:23;;;;;;;0.00;0.00;;;29.60;41.60;;;;;;5071051;28;20569;-59
2023/06/04 08:34:48;;;;;;;0.00;0.00;;;29.50;41.90;;;;;;5070771;28;20255;-59
2023/06/04 08:37:15;;;;;;;0.00;0.00;;;29.60;42.00;;;;;;5071061;28;20677;-60
2023/06/04 08:39:40;;;;;;;0.00;0.00;;;29.60;42.20;;;;;;5071060;28;20172;-60
2023/06/04 08:42:19;;;;;;;0.00;0.00;;;29.70;42.90;;;;;;5070975;28;20173;-59
2023/06/04 08:44:47;;;;;;;0.00;0.00;;;29.80;41.60;;;;;;5070952;28;20592;-59
2023/06/04 08:47:15;;;;;;;0.00;0.00;;;29.80;42.10;;;;;;5071037;28;20180;-59
2023/06/04 08:49:43;;;;;;;0.45;0.35;;;29.70;42.70;;;;;;5070863;28;20184;-60
2023/06/04 08:52:10;;;;;;;0.00;0.00;;;29.70;43.00;;;;;;5070941;28;20183;-60
2023/06/04 08:54:36;;;;;;;0.00;0.00;;;30.00;42.60;;;;;;5070545;28;20196;-60
2023/06/04 08:57:03;;;;;;;0.00;0.00;;;30.30;42.60;;;;;;5070621;28;20254;-60
2023/06/04 08:59:28;;;;;;;0.00;0.00;;;30.10;40.70;;;;;;5070812;28;20659;-60
2023/06/04 09:01:55;;;;;;;0.00;0.00;;;29.90;41.50;;;;;;5070598;28;20264;-60
2023/06/04 09:04:20;;;;;;;0.00;0.00;;;29.80;42.50;;;;;;5070701;28;20265;-60
2023/06/04 09:06:47;;;;;;;0.00;0.00;;;29.90;42.60;;;;;;5070666;28;20211;-60
2023/06/04 09:09:15;;;;;;;0.00;0.00;;;29.60;42.40;;;;;;5070777;28;20180;-60
2023/06/04 09:11:52;;;;;;;0.03;0.03;;;29.20;43.10;;;;;;5070813;28;20177;-59
2023/06/04 09:14:18;;;;;;;0.00;0.00;;;28.90;43.60;;;;;;5070568;28;20172;-60
2023/06/04 09:16:45;;;;;;;0.00;0.00;;;28.70;43.40;;;;;;5072461;28;20177;-60
2023/06/04 09:19:11;;;;;;;0.00;0.00;;;28.60;43.90;;;;;;5074814;28;20175;-59
2023/06/04 09:21:50;;;;;;;0.00;0.00;;;28.60;44.00;;;;;;5074672;28;20262;-59
2023/06/04 09:24:16;;;;;;;0.00;0.00;;;28.60;44.40;;;;;;5074678;28;20180;-60
2023/06/04 09:26:42;;;;;;;0.00;0.00;;;28.70;44.20;;;;;;5074513;28;20235;-60
2023/06/04 09:29:08;;;;;;;0.00;0.00;;;28.70;43.80;;;;;;5074536;28;20231;-60
2023/06/04 09:31:36;;;;;;;0.00;0.00;;;28.70;44.10;;;;;;5074478;28;20193;-60
2023/06/04 09:34:03;;;;;;;0.00;0.00;;;28.80;44.10;;;;;;5074261;28;20561;-60
2023/06/04 09:36:35;;;;;;;0.20;0.13;;;29.10;43.80;;;;;;5074231;28;20246;-60
2023/06/04 09:39:03;;;;;;;0.00;0.00;;;29.20;44.00;;;;;;5074363;28;20180;-60
2023/06/04 09:41:29;;;;;;;0.00;0.00;;;29.20;43.00;;;;;;5074448;28;20267;-60
2023/06/04 09:44:05;;;;;;;0.00;0.00;;;29.40;42.40;;;;;;5074229;28;20252;-59
2023/06/04 09:46:31;;;;;;;0.00;0.00;;;29.00;42.30;;;;;;5074401;28;20176;-59
2023/06/04 09:49:01;;;;;;;0.00;0.00;;;28.60;42.50;;;;;;5074035;28;20231;-60
2023/06/04 09:51:28;;;;;;;0.00;0.00;;;28.40;43.10;;;;;;5074275;28;20589;-60
2023/06/04 09:53:55;;;;;;;0.00;0.00;;;28.10;42.20;;;;;;5073776;28;20181;-59
2023/06/04 09:56:21;;;;;;;0.00;0.00;;;28.20;42.20;;;;;;5074010;28;20636;-60
2023/06/04 09:58:49;;;;;;;0.00;0.00;;;28.50;42.60;;;;;;5073986;28;20211;-60
2023/06/04 10:01:15;;;;;;;0.00;0.00;;;28.60;39.80;;;;;;5074052;28;20177;-61
2023/06/04 10:03:46;;;;;;;0.28;0.03;;;28.60;39.90;;;;;;5074022;28;20267;-59
2023/06/04 10:06:14;;;;;;;0.00;0.00;;;28.70;39.10;;;;;;5073869;28;20185;-60
2023/06/04 10:08:42;;;;;;;0.00;0.00;;;28.70;39.80;;;;;;5074075;28;20207;-59
2023/06/04 10:11:11;;;;;;;0.00;0.00;;;28.80;39.50;;;;;;5073703;28;20180;-59
2023/06/04 10:13:45;;;;;;;0.00;0.00;;;28.90;39.00;;;;;;5073645;28;20186;-59
2023/06/04 10:16:12;;;;;;;0.00;0.00;;;28.80;39.30;;;;;;5073514;28;20217;-60
2023/06/04 10:18:38;;;;;;;0.00;0.00;;;28.80;38.60;;;;;;5073496;28;20184;-59
2023/06/04 10:21:04;;;;;;;0.00;0.00;;;28.60;38.50;;;;;;5073593;28;20181;-60
2023/06/04 10:23:30;;;;;;;0.00;0.00;;;28.40;38.50;;;;;;5073628;28;20196;-60
2023/06/04 10:25:56;;;;;;;0.10;0.10;;;28.30;38.90;;;;;;5073108;28;20325;-59
2023/06/04 10:28:22;;;;;;;0.17;0.15;;;28.30;39.50;;;;;;5073234;28;20180;-60
2023/06/04 10:30:50;;;;;;;0.00;0.00;;;28.20;39.80;;;;;;5073417;28;20181;-60
2023/06/04 10:33:25;;;;;;;0.00;0.00;;;28.30;39.70;;;;;;5073383;28;20199;-60
2023/06/04 10:35:54;;;;;;;0.00;0.00;;;28.60;40.40;;;;;;5073203;28;20245;-59
2023/06/04 10:38:22;;;;;;;0.00;0.00;;;28.70;39.50;;;;;;5073412;28;20172;-60
2023/06/04 10:40:48;;;;;;;0.00;0.00;;;28.70;39.00;;;;;;5073242;28;20165;-60
2023/06/04 10:43:15;;;;;;;0.00;0.00;;;28.60;39.80;;;;;;5073272;28;20212;-60
2023/06/04 10:45:42;;;;;;;0.00;0.00;;;28.40;39.50;;;;;;5073181;28;20183;-60
2023/06/04 10:48:09;;;;;;;0.00;0.00;;;28.10;39.70;;;;;;5073168;28;20236;-60
2023/06/04 10:50:47;;;;;;;0.00;0.00;;;28.20;40.90;;;;;;5072845;28;20532;-60
2023/06/04 10:53:13;;;;;;;0.00;0.00;;;28.40;40.30;;;;;;5073088;28;20201;-60
2023/06/04 10:55:45;;;;;;;0.00;0.00;;;28.40;40.40;;;;;;5072777;28;20215;-60
2023/06/04 10:58:11;;;;;;;0.00;0.00;;;28.30;40.20;;;;;;5072995;28;20264;-59
2023/06/04 11:00:46;;;;;;;0.00;0.00;;;28.00;39.80;;;;;;5072732;28;20691;-60
2023/06/04 11:03:12;;;;;;;0.00;0.00;;;27.90;40.20;;;;;;5072890;28;20172;-60
2023/06/04 11:05:47;;;;;;;0.00;0.00;;;27.90;40.50;;;;;;5072662;28;20169;-59
2023/06/04 11:08:14;;;;;;;0.00;0.00;;;27.90;40.40;;;;;;5072856;28;20226;-60
2023/06/04 11:10:43;;;;;;;0.00;0.00;;;27.90;40.00;;;;;;5072856;28;20200;-60
2023/06/04 11:13:10;;;;;;;0.00;0.00;;;28.10;40.30;;;;;;5071405;28;20565;-61
2023/06/04 11:15:41;;;;;;;0.00;0.00;;;28.40;39.40;;;;;;5072394;28;20221;-60
2023/06/04 11:18:06;;;;;;;0.00;0.00;;;28.50;38.90;;;;;;5072573;28;20173;-61
2023/06/04 11:20:32;;;;;;;0.00;0.00;;;28.60;39.20;;;;;;5072666;28;20559;-60
2023/06/04 11:23:03;;;;;;;0.00;0.00;;;28.50;38.30;;;;;;5072134;28;20172;-60
2023/06/04 11:25:30;;;;;;;0.00;0.00;;;28.50;38.40;;;;;;5072344;28;20330;-60
2023/06/04 11:27:57;;;;;;;0.00;0.00;;;28.60;38.50;;;;;;5072189;28;20198;-60
2023/06/04 11:30:23;;;;;;;0.00;0.00;;;28.60;38.30;;;;;;5072352;28;20180;-60
2023/06/04 11:32:50;;;;;;;0.00;0.00;;;28.70;38.50;;;;;;5072518;28;20202;-60
2023/06/04 11:35:16;;;;;;;0.00;0.00;;;28.60;38.30;;;;;;5072177;28;20309;-60
2023/06/04 11:37:41;;;;;;;0.00;0.00;;;28.60;37.50;;;;;;5072232;28;20183;-60
2023/06/04 11:40:17;;;;;;;0.00;0.00;;;28.60;38.00;;;;;;5071393;28;20185;-60
2023/06/04 11:42:44;;;;;;;0.00;0.00;;;28.60;37.60;;;;;;5072019;28;20177;-60
2023/06/04 11:45:13;;;;;;;0.00;0.00;;;28.60;37.80;;;;;;5071995;28;20179;-60
2023/06/04 11:47:39;;;;;;;0.00;0.00;;;28.70;37.40;;;;;;5072072;28;20596;-60
2023/06/04 11:50:05;;;;;;;0.00;0.00;;;28.80;36.90;;;;;;5071800;28;20271;-60
2023/06/04 11:52:31;;;;;;;0.00;0.00;;;28.90;37.20;;;;;;5071789;28;20175;-60
2023/06/04 11:54:57;;;;;;;0.00;0.00;;;29.10;37.60;;;;;;5071523;28;20228;-60
2023/06/04 11:57:23;;;;;;;0.00;0.00;;;29.00;36.30;;;;;;5071690;28;20177;-60
2023/06/04 11:59:48;;;;;;;0.00;0.00;;;29.00;36.80;;;;;;5071505;28;20238;-60
2023/06/04 12:02:14;;;;;;;0.00;0.00;;;28.80;36.50;;;;;;5071561;28;20169;-60
2023/06/04 12:04:39;;;;;;;0.00;0.00;;;28.70;36.60;;;;;;5071443;28;20264;-60
2023/06/04 12:07:06;;;;;;;0.00;0.00;;;28.60;37.00;;;;;;5071725;28;20177;-60
2023/06/04 12:09:35;;;;;;;0.00;0.00;;;28.50;36.80;;;;;;5071571;28;20215;-60
2023/06/04 12:12:02;;;;;;;0.00;0.00;;;28.30;37.10;;;;;;5071371;28;20238;-60
2023/06/04 12:14:29;;;;;;;0.00;0.00;;;28.40;37.20;;;;;;5071437;28;20215;-59
2023/06/04 12:16:58;;;;;;;0.00;0.00;;;28.50;38.00;;;;;;5071219;28;20196;-59
2023/06/04 12:19:24;;;;;;;0.00;0.00;;;28.60;37.30;;;;;;5071420;28;20191;-60
2023/06/04 12:22:00;;;;;;;0.00;0.00;;;28.80;37.40;;;;;;5071079;28;20192;-60
2023/06/04 12:24:26;;;;;;;0.03;0.03;;;28.80;37.50;;;;;;5071215;28;20259;-60
2023/06/04 12:27:02;;;;;;;0.00;0.00;;;28.90;38.50;;;;;;5070980;28;20311;-60
2023/06/04 12:29:28;;;;;;;0.00;0.00;;;28.90;37.50;;;;;;5071347;28;20175;-60
2023/06/04 12:32:05;;;;;;;0.00;0.00;;;28.80;36.60;;;;;;5070939;28;20181;-60
2023/06/04 12:34:32;;;;;;;0.00;0.00;;;28.90;37.80;;;;;;5070973;28;20244;-60
2023/06/04 12:36:57;;;;;;;0.00;0.00;;;29.00;37.80;;;;;;5070809;28;20586;-59
2023/06/04 12:39:23;;;;;;;0.00;0.00;;;29.00;37.20;;;;;;5071066;28;20190;-59
2023/06/04 12:41:48;;;;;;;0.00;0.00;;;28.70;37.10;;;;;;5071035;28;20180;-59
2023/06/04 12:44:15;;;;;;;0.00;0.00;;;28.50;37.60;;;;;;5070710;28;20611;-59
2023/06/04 12:46:40;;;;;;;0.00;0.00;;;28.10;37.10;;;;;;5070802;28;20196;-60